Time;durP1;ratioP1;P1;durP2;ratioP2;P2;SDS_P1;SDS_P2;PMS_P1;PMS_P2;Temp;Humidity;BMP_temperature;BMP_pressure;BME280_temperature;BME280_humidity;BME280_pressure;Samples;Min_cycle;Max_cycle;Signal;HPM_P1;HPM_P2
2023/06/02 00:01:40;;;;;;;4.43;2.10;;;;;;;;;;5057001;28;20444;-58
2023/06/02 00:04:07;;;;;;;2.73;2.30;;;;;;;;;;5056152;28;20475;-56
2023/06/02 00:06:34;;;;;;;8.90;2.60;;;;;;;;;;5056400;28;20467;-59
2023/06/02 00:09:04;;;;;;;5.83;2.47;;;14.10;99.90;;;;;;5056672;28;20444;-60
2023/06/02 00:11:34;;;;;;;19.70;2.77;;;;;;;;;;5056349;28;20475;-61
2023/06/02 00:14:03;;;;;;;6.20;2.80;;;14.40;99.90;;;;;;5056309;28;20507;-61
2023/06/02 00:16:33;;;;;;;6.73;3.03;;;14.20;99.90;;;;;;5056410;28;20444;-57
2023/06/02 00:19:01;;;;;;;7.17;2.40;;;;;;;;;;5056269;28;20440;-57
2023/06/02 00:21:28;;;;;;;7.80;2.23;;;;;;;;;;5056723;28;20458;-56
2023/06/02 00:23:55;;;;;;;16.13;4.47;;;;;;;;;;5056332;28;20475;-59
2023/06/02 00:26:22;;;;;;;13.17;2.60;;;;;;;;;;5055767;28;20526;-59
2023/06/02 00:28:52;;;;;;;4.97;2.70;;;;;;;;;;5055113;28;20444;-55
2023/06/02 00:31:19;;;;;;;3.40;2.10;;;;;;;;;;5056360;28;20440;-60
2023/06/02 00:33:48;;;;;;;9.50;3.27;;;;;;;;;;5055768;28;20440;-60
2023/06/02 00:36:15;;;;;;;7.53;2.50;;;;;;;;;;5056210;28;20468;-59
2023/06/02 00:38:43;;;;;;;4.80;2.67;;;14.00;99.90;;;;;;5056121;28;20428;-62
2023/06/02 00:41:10;;;;;;;2.60;2.20;;;;;;;;;;5055575;28;20436;-61
2023/06/02 00:43:37;;;;;;;7.73;3.03;;;;;;;;;;5056130;28;20441;-54
2023/06/02 00:46:04;;;;;;;5.80;2.40;;;;;;;;;;5055652;28;20480;-58
2023/06/02 00:48:31;;;;;;;18.47;3.57;;;;;;;;;;5055501;28;20479;-62
2023/06/02 00:51:00;;;;;;;5.30;2.80;;;;;;;;;;5055672;28;20504;-57
2023/06/02 00:53:27;;;;;;;10.43;3.50;;;;;;;;;;5055546;28;20444;-58
2023/06/02 00:55:55;;;;;;;3.87;2.00;;;13.90;99.90;;;;;;5055850;28;20440;-57
2023/06/02 00:58:23;;;;;;;7.20;3.10;;;;;;;;;;5055816;28;20479;-57
2023/06/02 01:00:52;;;;;;;10.10;3.20;;;;;;;;;;5055513;28;20491;-58
2023/06/02 01:03:21;;;;;;;7.20;3.17;;;;;;;;;;5057615;28;20431;-58
2023/06/02 01:05:50;;;;;;;6.63;2.47;;;13.60;99.90;;;;;;5059485;28;20488;-57
2023/06/02 01:08:22;;;;;;;9.73;2.47;;;;;;;;;;5059963;28;20409;-54
2023/06/02 01:10:49;;;;;;;13.20;3.80;;;;;;;;;;5059280;28;20520;-60
2023/06/02 01:13:16;;;;;;;13.17;2.83;;;;;;;;;;5059815;28;20448;-61
2023/06/02 01:15:45;;;;;;;8.20;2.87;;;13.80;99.90;;;;;;5059480;28;20436;-62
2023/06/02 01:18:14;;;;;;;4.70;3.20;;;;;;;;;;5058810;28;20810;-55
2023/06/02 01:20:48;;;;;;;5.40;2.50;;;13.50;99.90;;;;;;5058604;28;20458;-56
2023/06/02 01:23:18;;;;;;;9.80;3.33;;;13.40;99.90;;;;;;5058802;28;20463;-56
2023/06/02 01:25:46;;;;;;;6.73;3.00;;;13.30;99.90;;;;;;5057727;28;20479;-57
2023/06/02 01:28:14;;;;;;;5.27;3.20;;;;;;;;;;5058781;28;20468;-56
2023/06/02 01:30:41;;;;;;;15.87;3.43;;;;;;;;;;5058700;28;20443;-60
2023/06/02 01:33:16;;;;;;;7.20;2.83;;;13.70;99.90;;;;;;5059054;28;20431;-59
2023/06/02 01:35:46;;;;;;;9.13;3.00;;;13.30;99.90;;;;;;5058930;28;20467;-57
2023/06/02 01:38:14;;;;;;;6.73;2.80;;;13.30;99.90;;;;;;5058615;28;20451;-61
2023/06/02 01:40:52;;;;;;;9.87;3.43;;;13.30;99.90;;;;;;5058246;28;20483;-59
2023/06/02 01:43:20;;;;;;;6.60;3.10;;;;;;;;;;5058347;28;20448;-59
2023/06/02 01:45:47;;;;;;;2.90;2.30;;;;;;;;;;5058561;28;20480;-57
2023/06/02 01:48:15;;;;;;;9.30;2.30;;;;;;;;;;5058857;28;20425;-57
2023/06/02 01:50:44;;;;;;;3.43;2.67;;;13.10;99.90;;;;;;5058070;28;20496;-60
2023/06/02 01:53:11;;;;;;;7.33;2.43;;;;;;;;;;5058342;28;20507;-61
2023/06/02 01:55:39;;;;;;;4.60;2.33;;;;;;;;;;5058511;28;20464;-60
2023/06/02 01:58:07;;;;;;;10.73;3.93;;;13.10;99.90;;;;;;5057855;28;20460;-56
2023/06/02 02:00:34;;;;;;;9.73;3.23;;;;;;;;;;5057799;28;20451;-58
2023/06/02 02:03:02;;;;;;;8.63;2.50;;;;;;;;;;5057755;28;20472;-54
2023/06/02 02:05:29;;;;;;;6.90;3.53;;;;;;;;;;5057834;28;20936;-55
2023/06/02 02:07:57;;;;;;;4.60;2.50;;;;;;;;;;5057653;28;20451;-61
2023/06/02 02:10:24;;;;;;;3.93;2.40;;;;;;;;;;5057449;28;20431;-59
2023/06/02 02:12:52;;;;;;;12.50;4.37;;;;;;;;;;5057699;28;20471;-61
2023/06/02 02:15:23;;;;;;;10.57;3.33;;;12.70;99.90;;;;;;5056648;28;20444;-58
2023/06/02 02:17:52;;;;;;;13.60;4.03;;;12.90;99.90;;;;;;5057898;28;20455;-60
2023/06/02 02:20:23;;;;;;;6.80;2.23;;;12.80;99.90;;;;;;5058281;28;20523;-58
2023/06/02 02:22:50;;;;;;;5.47;3.33;;;;;;;;;;5057144;28;20432;-59
2023/06/02 02:25:17;;;;;;;8.70;2.80;;;;;;;;;;5057712;28;20967;-61
2023/06/02 02:27:44;;;;;;;5.43;2.60;;;;;;;;;;5058097;28;20445;-60
2023/06/02 02:30:12;;;;;;;6.63;3.10;;;;;;;;;;5057671;28;20463;-61
2023/06/02 02:32:43;;;;;;;10.30;2.20;;;12.90;99.90;;;;;;5057628;28;20471;-60
2023/06/02 02:35:11;;;;;;;3.13;2.53;;;;;;;;;;5058010;28;20425;-56
2023/06/02 02:37:38;;;;;;;9.43;3.57;;;;;;;;;;5057565;28;20468;-56
2023/06/02 02:40:06;;;;;;;7.73;2.40;;;12.50;99.90;;;;;;5057446;28;20468;-55
2023/06/02 02:42:34;;;;;;;13.83;3.10;;;;;;;;;;5057264;28;20487;-56
2023/06/02 02:45:02;;;;;;;8.07;2.53;;;;;;;;;;5057190;28;20428;-58
2023/06/02 02:47:29;;;;;;;8.93;3.00;;;;;;;;;;5057727;28;20523;-56
2023/06/02 02:49:57;;;;;;;7.07;3.27;;;12.30;99.90;;;;;;5057704;28;20452;-60
2023/06/02 02:52:24;;;;;;;6.73;2.60;;;;;;;;;;5057273;28;20453;-60
2023/06/02 02:54:53;;;;;;;8.73;2.53;;;12.10;99.90;;;;;;5057793;28;20448;-58
2023/06/02 02:57:20;;;;;;;9.20;3.00;;;;;;;;;;5058195;28;20417;-61
2023/06/02 02:59:49;;;;;;;8.70;2.97;;;;;;;;;;5057969;28;20500;-57
2023/06/02 03:02:16;;;;;;;10.57;3.00;;;;;;;;;;5057227;28;20439;-60
2023/06/02 03:04:43;;;;;;;12.87;3.73;;;;;;;;;;5057611;28;20452;-56
2023/06/02 03:07:12;;;;;;;8.03;2.37;;;12.30;99.90;;;;;;5057945;28;20460;-52
2023/06/02 03:09:39;;;;;;;10.63;3.20;;;;;;;;;;5057359;28;20444;-50
2023/06/02 03:12:06;;;;;;;10.23;3.87;;;;;;;;;;5057647;28;20463;-60
2023/06/02 03:14:33;;;;;;;9.77;3.17;;;;;;;;;;5057309;28;20432;-58
2023/06/02 03:17:00;;;;;;;9.40;2.80;;;;;;;;;;5057393;28;20480;-55
2023/06/02 03:19:29;;;;;;;16.50;3.50;;;;;;;;;;5057355;28;20475;-59
2023/06/02 03:21:56;;;;;;;8.10;2.50;;;;;;;;;;5057658;28;20468;-53
2023/06/02 03:24:25;;;;;;;8.63;3.47;;;12.20;99.90;;;;;;5056916;28;20439;-56
2023/06/02 03:26:55;;;;;;;9.67;4.27;;;12.50;99.90;;;;;;5056281;28;20508;-55
2023/06/02 03:29:22;;;;;;;18.07;4.33;;;;;;;;;;5056707;28;20440;-59
2023/06/02 03:31:51;;;;;;;12.53;2.80;;;12.50;99.90;;;;;;5056876;28;20420;-58
2023/06/02 03:34:18;;;;;;;8.80;3.57;;;;;;;;;;5057223;28;20467;-59
2023/06/02 03:36:45;;;;;;;11.40;2.33;;;;;;;;;;5057336;28;20431;-55
2023/06/02 03:39:13;;;;;;;18.13;2.57;;;;;;;;;;5057431;28;20448;-61
2023/06/02 03:41:41;;;;;;;8.57;3.00;;;12.40;99.90;;;;;;5057795;28;20449;-62
2023/06/02 03:44:08;;;;;;;9.90;4.60;;;;;;;;;;5056238;28;20448;-60
2023/06/02 03:46:35;;;;;;;8.80;3.43;;;;;;;;;;5056596;28;20464;-60
2023/06/02 03:49:03;;;;;;;14.73;3.40;;;;;;;;;;5056504;28;20444;-58
2023/06/02 03:51:30;;;;;;;4.90;2.47;;;;;;;;;;5057066;28;20471;-56
2023/06/02 03:53:57;;;;;;;15.33;4.63;;;;;;;;;;5056991;28;20444;-58
2023/06/02 03:56:25;;;;;;;11.80;2.57;;;;;;;;;;5056939;28;20484;-57
2023/06/02 03:58:56;;;;;;;6.63;3.80;;;;;;;;;;5057206;28;20822;-53
2023/06/02 04:01:24;;;;;;;16.30;2.77;;;;;;;;;;5057182;28;20456;-56
2023/06/02 04:03:53;;;;;;;5.73;3.13;;;;;;;;;;5056687;28;20466;-58
2023/06/02 04:06:21;;;;;;;9.03;3.30;;;;;;;;;;5057130;28;20471;-61
2023/06/02 04:08:48;;;;;;;8.33;2.20;;;;;;;;;;5057489;28;20448;-57
2023/06/02 04:11:15;;;;;;;14.63;3.77;;;;;;;;;;5056983;28;20448;-58
2023/06/02 04:13:42;;;;;;;11.70;4.53;;;;;;;;;;5057000;28;20472;-58
2023/06/02 04:16:10;;;;;;;6.60;2.47;;;12.70;99.90;;;;;;5057117;28;20464;-56
2023/06/02 04:18:38;;;;;;;8.23;2.97;;;12.90;99.90;;;;;;5056076;28;20472;-60
2023/06/02 04:21:06;;;;;;;5.10;2.80;;;;;;;;;;5055415;28;20429;-61
2023/06/02 04:23:33;;;;;;;10.37;2.73;;;;;;;;;;5055207;28;20444;-59
2023/06/02 04:26:00;;;;;;;9.27;3.93;;;;;;;;;;5055791;28;20463;-60
2023/06/02 04:28:27;;;;;;;7.30;3.27;;;;;;;;;;5055858;28;20480;-57
2023/06/02 04:30:55;;;;;;;8.13;3.33;;;;;;;;;;5055587;28;20464;-58
2023/06/02 04:33:23;;;;;;;7.93;2.23;;;12.60;99.90;;;;;;5055764;28;20478;-58
2023/06/02 04:35:53;;;;;;;12.10;2.90;;;;;;;;;;5055191;28;20471;-62
2023/06/02 04:38:22;;;;;;;6.33;2.50;;;12.90;99.90;;;;;;5057275;28;20416;-61
2023/06/02 04:40:50;;;;;;;7.17;3.03;;;;;;;;;;5058821;28;20435;-59
2023/06/02 04:43:18;;;;;;;4.77;2.40;;;;;;;;;;5059760;28;20443;-55
2023/06/02 04:45:47;;;;;;;6.43;3.47;;;;;;;;;;5058919;28;20437;-53
2023/06/02 04:48:15;;;;;;;12.57;3.60;;;13.20;99.90;;;;;;5059696;28;20451;-59
2023/06/02 04:50:43;;;;;;;7.10;2.67;;;13.20;99.90;;;;;;5058649;28;20436;-61
2023/06/02 04:53:11;;;;;;;6.87;2.63;;;;;;;;;;5059426;28;20465;-56
2023/06/02 04:55:38;;;;;;;12.43;2.27;;;;;;;;;;5059084;28;20455;-59
2023/06/02 04:58:12;;;;;;;7.03;2.73;;;;;;;;;;5059342;28;20492;-61
2023/06/02 05:00:40;;;;;;;10.00;2.83;;;;;;;;;;5058648;28;20450;-61
2023/06/02 05:03:07;;;;;;;11.63;3.23;;;;;;;;;;5059086;28;20450;-58
2023/06/02 05:05:35;;;;;;;7.77;2.50;;;;;;;;;;5058831;28;20463;-62
2023/06/02 05:08:03;;;;;;;9.80;3.90;;;;;;;;;;5059139;28;20507;-59
2023/06/02 05:10:30;;;;;;;4.83;3.73;;;;;;;;;;5059353;28;20471;-55
2023/06/02 05:12:58;;;;;;;10.63;3.00;;;;;;;;;;5059448;28;20413;-61
2023/06/02 05:15:25;;;;;;;19.70;3.50;;;;;;;;;;5059092;28;20452;-61
2023/06/02 05:17:53;;;;;;;7.50;3.40;;;13.40;99.90;;;;;;5058907;28;20475;-61
2023/06/02 05:20:20;;;;;;;7.07;2.87;;;;;;;;;;5059029;28;20436;-55
2023/06/02 05:22:48;;;;;;;8.30;2.73;;;;;;;;;;5058943;28;20519;-60
2023/06/02 05:25:16;;;;;;;27.60;3.90;;;;;;;;;;5058737;28;20474;-62
2023/06/02 05:27:43;;;;;;;10.83;3.20;;;;;;;;;;5059114;28;20488;-61
2023/06/02 05:30:11;;;;;;;13.63;3.50;;;;;;;;;;5058394;28;20448;-61
2023/06/02 05:32:38;;;;;;;9.60;3.27;;;;;;;;;;5058871;28;20479;-61
2023/06/02 05:35:05;;;;;;;14.83;3.27;;;;;;;;;;5058587;28;20444;-57
2023/06/02 05:37:32;;;;;;;8.30;3.00;;;;;;;;;;5057667;28;20468;-57
2023/06/02 05:39:59;;;;;;;19.17;3.90;;;;;;;;;;5058747;28;20432;-60
2023/06/02 05:42:30;;;;;;;9.17;2.70;;;13.70;99.90;;;;;;5058797;28;20471;-61
2023/06/02 05:44:58;;;;;;;7.30;2.97;;;;;;;;;;5058950;28;20424;-61
2023/06/02 05:47:26;;;;;;;17.97;3.63;;;;;;;;;;5058378;28;20494;-58
2023/06/02 05:49:53;;;;;;;11.00;3.03;;;;;;;;;;5057748;28;20437;-57
2023/06/02 05:52:20;;;;;;;10.50;4.00;;;;;;;;;;5059035;28;20469;-59
2023/06/02 05:54:47;;;;;;;6.23;2.77;;;;;;;;;;5058682;28;20444;-61
2023/06/02 05:57:14;;;;;;;7.73;3.10;;;;;;;;;;5058219;28;20451;-56
2023/06/02 05:59:49;;;;;;;6.83;2.80;;;14.10;99.90;;;;;;5059255;28;20448;-61
2023/06/02 06:02:16;;;;;;;17.03;3.70;;;;;;;;;;5059245;28;20412;-59
2023/06/02 06:04:43;;;;;;;22.10;3.37;;;;;;;;;;5059013;28;20825;-59
2023/06/02 06:07:12;;;;;;;12.57;3.00;;;14.10;99.90;;;;;;5059054;28;20520;-59
2023/06/02 06:09:39;;;;;;;4.53;2.33;;;;;;;;;;5058699;28;20460;-62
2023/06/02 06:12:07;;;;;;;6.37;2.83;;;14.00;99.90;;;;;;5058671;28;20503;-59
2023/06/02 06:14:34;;;;;;;8.00;3.27;;;;;;;;;;5059309;28;20503;-59
2023/06/02 06:17:02;;;;;;;20.20;3.50;;;14.00;99.90;;;;;;5059386;28;20464;-59
2023/06/02 06:19:29;;;;;;;11.83;4.57;;;;;;;;;;5059023;28;20468;-60
2023/06/02 06:21:57;;;;;;;9.90;2.90;;;;;;;;;;5059365;28;20432;-53
2023/06/02 06:24:24;;;;;;;8.47;4.00;;;;;;;;;;5059239;28;20476;-57
2023/06/02 06:26:51;;;;;;;7.17;2.97;;;;;;;;;;5059293;28;20479;-56
2023/06/02 06:29:18;;;;;;;8.13;3.10;;;;;;;;;;5059552;28;20444;-56
2023/06/02 06:31:45;;;;;;;9.70;3.00;;;;;;;;;;5059703;28;20448;-50
2023/06/02 06:34:14;;;;;;;13.47;3.50;;;;;;;;;;5059557;28;20448;-52
2023/06/02 06:36:41;;;;;;;5.33;3.00;;;;;;;;;;5059415;28;20424;-57
2023/06/02 06:39:08;;;;;;;7.20;2.67;;;;;;;;;;5058981;28;20435;-52
2023/06/02 06:41:40;;;;;;;14.20;4.20;;;;;;;;;;5059135;28;20440;-57
2023/06/02 06:44:07;;;;;;;12.27;4.73;;;;;;;;;;5058797;28;20432;-54
2023/06/02 06:46:34;;;;;;;6.20;3.30;;;;;;;;;;5058727;28;20491;-51
2023/06/02 06:49:03;;;;;;;9.17;3.63;;;14.10;99.90;;;;;;5058201;28;20464;-55
2023/06/02 06:51:31;;;;;;;16.40;3.50;;;14.30;99.90;;;;;;5058281;28;20490;-57
2023/06/02 06:53:58;;;;;;;22.30;4.10;;;;;;;;;;5058546;28;20444;-54
2023/06/02 06:56:26;;;;;;;11.40;4.40;;;;;;;;;;5057378;28;20444;-52
2023/06/02 06:58:53;;;;;;;11.03;3.17;;;;;;;;;;5057680;28;20480;-57
2023/06/02 07:01:20;;;;;;;12.90;4.07;;;;;;;;;;5057339;28;20475;-59
2023/06/02 07:03:47;;;;;;;15.83;4.30;;;;;;;;;;5057509;28;20468;-51
2023/06/02 07:06:15;;;;;;;18.57;4.50;;;;;;;;;;5057813;28;20451;-56
2023/06/02 07:08:44;;;;;;;18.10;3.77;;;15.00;99.90;;;;;;5057656;28;20496;-56
2023/06/02 07:11:11;;;;;;;18.77;3.90;;;;;;;;;;5057638;28;20471;-59
2023/06/02 07:13:40;;;;;;;9.63;3.70;;;;;;;;;;5057873;28;20445;-56
2023/06/02 07:16:07;;;;;;;8.73;4.87;;;;;;;;;;5057817;28;20429;-59
2023/06/02 07:18:35;;;;;;;11.17;4.80;;;15.40;99.90;;;;;;5057302;28;20480;-60
2023/06/02 07:21:02;;;;;;;13.20;4.17;;;;;;;;;;5057490;28;20463;-61
2023/06/02 07:23:29;;;;;;;11.90;3.43;;;;;;;;;;5056848;28;20448;-59
2023/06/02 07:25:57;;;;;;;23.10;5.20;;;16.40;99.90;;;;;;5057210;28;20476;-57
2023/06/02 07:28:24;;;;;;;19.53;5.30;;;;;;;;;;5057134;28;20633;-56
2023/06/02 07:30:52;;;;;;;13.40;4.17;;;;;;;;;;5056042;28;20476;-56
2023/06/02 07:33:21;;;;;;;18.20;6.50;;;;;;;;;;5056377;28;20476;-55
2023/06/02 07:35:48;;;;;;;18.03;6.37;;;;;;;;;;5056784;28;20440;-56
2023/06/02 07:38:15;;;;;;;8.77;4.20;;;;;;;;;;5056788;28;20459;-58
2023/06/02 07:40:42;;;;;;;12.80;4.77;;;;;;;;;;5056657;28;20424;-61
2023/06/02 07:43:10;;;;;;;13.23;4.57;;;16.70;99.90;;;;;;5054034;28;20475;-59
2023/06/02 07:45:38;;;;;;;9.53;4.67;;;;;;;;;;5056270;28;20439;-54
2023/06/02 07:48:05;;;;;;;18.20;5.50;;;;;;;;;;5056432;28;20464;-58
2023/06/02 07:50:32;;;;;;;12.90;5.80;;;;;;;;;;5056012;28;20461;-54
2023/06/02 07:52:59;;;;;;;7.53;5.80;;;;;;;;;;5056333;28;20468;-59
2023/06/02 07:55:26;;;;;;;9.67;6.43;;;;;;;;;;5056512;28;20462;-59
2023/06/02 07:57:53;;;;;;;13.03;4.70;;;;;;;;;;5055768;28;20464;-60
2023/06/02 08:00:22;;;;;;;11.00;5.07;;;;;;;;;;5055943;28;20467;-60
2023/06/02 08:02:49;;;;;;;12.33;5.80;;;;;;;;;;5056327;28;20429;-57
2023/06/02 08:05:17;;;;;;;13.93;5.70;;;;;;;;;;5049320;28;20463;-60
2023/06/02 08:07:44;;;;;;;24.47;6.07;;;;;;;;;;5050178;28;20464;-61
2023/06/02 08:10:12;;;;;;;5.27;4.67;;;;;;;;;;5054072;28;20448;-58
2023/06/02 08:12:39;;;;;;;15.53;4.90;;;;;;;;;;5057752;28;20492;-59
2023/06/02 08:15:07;;;;;;;14.17;5.73;;;16.70;99.90;;;;;;5062751;28;20494;-59
2023/06/02 08:17:36;;;;;;;7.30;4.53;;;;;;;;;;5062335;28;20459;-58
2023/06/02 08:20:04;;;;;;;8.53;4.67;;;16.60;99.90;;;;;;5061934;28;20455;-57
2023/06/02 08:22:32;;;;;;;12.10;4.30;;;;;;;;;;5060954;28;20474;-57
2023/06/02 08:25:00;;;;;;;10.23;4.40;;;;;;;;;;5061287;28;20405;-57
2023/06/02 08:27:28;;;;;;;16.67;4.00;;;16.90;99.90;;;;;;5062290;28;20535;-55
2023/06/02 08:29:56;;;;;;;11.37;4.40;;;;;;;;;;5061682;28;20444;-56
2023/06/02 08:32:24;;;;;;;14.27;5.63;;;;;;;;;;5062567;28;20439;-56
2023/06/02 08:34:55;;;;;;;11.20;4.33;;;16.80;99.90;;;;;;5061905;28;20487;-60
2023/06/02 08:37:22;;;;;;;6.00;3.97;;;16.80;99.90;;;;;;5062138;28;20535;-59
2023/06/02 08:39:50;;;;;;;9.70;3.47;;;16.50;99.90;;;;;;5061891;28;20459;-59
2023/06/02 08:42:18;;;;;;;13.90;3.07;;;;;;;;;;5062023;28;20439;-57
2023/06/02 08:44:46;;;;;;;5.57;4.60;;;16.70;99.90;;;;;;5061733;28;20472;-58
2023/06/02 08:47:14;;;;;;;4.93;3.20;;;16.90;99.90;;;;;;5061865;28;20443;-59
2023/06/02 08:49:43;;;;;;;6.60;3.80;;;17.10;99.90;;;;;;5051627;28;20448;-60
2023/06/02 08:52:16;;;;;;;7.53;4.13;;;17.40;99.90;;;;;;5057710;28;20470;-58
2023/06/02 08:54:43;;;;;;;9.33;3.00;;;;;;;;;;5062158;28;20420;-59
2023/06/02 08:57:12;;;;;;;3.60;2.93;;;18.50;99.90;;;;;;5062044;28;20468;-60
2023/06/02 08:59:41;;;;;;;5.40;2.70;;;18.90;99.90;;;;;;5043284;28;20459;-62
2023/06/02 09:02:08;;;;;;;6.83;4.07;;;;;;;;;;5053280;28;20480;-60
2023/06/02 09:04:37;;;;;;;5.43;3.40;;;;;;;;;;5059474;28;20448;-59
2023/06/02 09:07:20;;;;;;;11.10;5.60;;;19.00;99.90;;;;;;5061189;28;20438;-60
2023/06/02 09:09:49;;;;;;;6.70;3.40;;;19.00;99.90;;;;;;5061308;28;20840;-57
2023/06/02 09:12:17;;;;;;;3.70;3.00;;;;;;;;;;5062380;28;20435;-61
2023/06/02 09:14:45;;;;;;;5.90;3.47;;;;;;;;;;5060516;28;20478;-59
2023/06/02 09:17:26;;;;;;;7.53;3.13;;;18.60;99.90;;;;;;5062153;28;20486;-58
2023/06/02 09:19:55;;;;;;;4.83;3.20;;;18.50;99.90;;;;;;5061831;28;20451;-57
2023/06/02 09:22:23;;;;;;;4.23;3.00;;;18.40;99.90;;;;;;5062063;28;20436;-61
2023/06/02 09:24:50;;;;;;;8.17;3.23;;;;;;;;;;5060186;28;20468;-61
2023/06/02 09:27:18;;;;;;;6.80;4.13;;;19.50;99.90;;;;;;5056653;28;20470;-56
2023/06/02 09:29:47;;;;;;;3.83;3.17;;;20.70;99.90;;;;;;5058902;28;20440;-60
2023/06/02 09:32:15;;;;;;;5.43;3.30;;;21.30;99.90;;;;;;5059382;28;20479;-60
2023/06/02 09:34:43;;;;;;;9.20;2.97;;;;;;;;;;5059511;28;20448;-57
2023/06/02 09:37:16;;;;;;;3.17;2.80;;;22.10;99.90;;;;;;5058850;28;20497;-56
2023/06/02 09:39:46;;;;;;;4.97;2.80;;;22.00;99.90;;;;;;5058968;28;20425;-59
2023/06/02 09:42:17;;;;;;;5.40;2.90;;;21.70;99.90;;;;;;5057842;28;20468;-57
2023/06/02 09:45:03;;;;;;;3.93;2.90;;;21.20;99.90;;;;;;5056376;28;20527;-60
2023/06/02 09:47:30;;;;;;;2.87;2.30;;;;;;;;;;5056584;28;20413;-57
2023/06/02 09:49:57;;;;;;;3.10;2.40;;;;;;;;;;5049832;28;20444;-57
2023/06/02 09:52:25;;;;;;;3.80;2.03;;;;;;;;;;5058662;28;20428;-57
2023/06/02 09:54:53;;;;;;;5.50;1.67;;;;;;;;;;5058354;28;20498;-57
2023/06/02 09:57:20;;;;;;;2.10;1.50;;;;;;;;;;5058848;28;20461;-57
2023/06/02 09:59:48;;;;;;;2.13;1.50;;;;;;;;;;5059187;28;20471;-59
2023/06/02 10:02:15;;;;;;;1.73;1.27;;;;;;;;;;5057487;28;20452;-57
2023/06/02 10:04:42;;;;;;;2.67;1.43;;;;;;;;;;5056617;28;20534;-62
2023/06/02 10:07:27;;;;;;;3.17;2.20;;;25.60;63.70;;;;;;5058595;28;20451;-59
2023/06/02 10:10:09;;;;;;;4.00;1.63;;;26.10;69.50;;;;;;5054617;28;20428;-61
2023/06/02 10:12:50;;;;;;;2.03;1.03;;;26.60;64.90;;;;;;5052813;28;20507;-63
2023/06/02 10:15:32;;;;;;;1.60;1.50;;;27.20;62.50;;;;;;5050939;28;20735;-60
2023/06/02 10:18:13;;;;;;;3.87;1.67;;;27.70;60.60;;;;;;5050157;28;20460;-62
2023/06/02 10:20:51;;;;;;;2.93;2.00;;;28.00;59.60;;;;;;5051255;28;20428;-61
2023/06/02 10:23:33;;;;;;;3.03;2.13;;;28.30;58.40;;;;;;5051058;28;20499;-59
2023/06/02 10:26:32;;;;;;;4.43;1.93;;;27.70;57.90;;;;;;5049570;28;20429;-59
2023/06/02 10:29:01;;;;;;;1.90;1.77;;;26.70;58.20;;;;;;5047425;28;20947;-59
2023/06/02 10:31:32;;;;;;;2.67;1.67;;;26.70;53.90;;;;;;5050679;28;20492;-60
2023/06/02 10:34:01;;;;;;;5.70;1.30;;;26.50;57.40;;;;;;5050283;28;20960;-61
2023/06/02 10:36:29;;;;;;;3.63;1.60;;;;;;;;;;5047156;28;20458;-62
2023/06/02 10:38:56;;;;;;;4.33;1.53;;;;;;;;;;5052995;28;20479;-64
2023/06/02 10:41:57;;;;;;;2.37;2.00;;;26.50;59.90;;;;;;5049005;28;20448;-58
2023/06/02 10:44:26;;;;;;;3.70;2.27;;;;;;;;;;5052085;28;20753;-53
2023/06/02 10:47:30;;;;;;;2.40;2.00;;;25.90;54.80;;;;;;5054380;28;20495;-54
2023/06/02 10:49:58;;;;;;;1.60;1.30;;;25.70;58.10;;;;;;5056408;28;20435;-57
2023/06/02 10:52:25;;;;;;;3.10;1.30;;;;;;;;;;5054369;28;20537;-59
2023/06/02 10:55:28;;;;;;;4.30;1.80;;;24.90;57.00;;;;;;5056680;28;20436;-56
2023/06/02 10:57:56;;;;;;;2.33;2.10;;;25.30;62.40;;;;;;5042095;28;20464;-57
2023/06/02 11:00:46;;;;;;;2.43;1.30;;;25.10;56.90;;;;;;5056792;28;20444;-58
2023/06/02 11:03:34;;;;;;;1.80;1.50;;;24.20;57.40;;;;;;5056345;28;20472;-57
2023/06/02 11:06:21;;;;;;;1.97;1.77;;;24.00;62.90;;;;;;5056349;28;20451;-58
2023/06/02 11:08:53;;;;;;;3.67;2.03;;;24.00;65.80;;;;;;5056893;28;20480;-54
2023/06/02 11:11:54;;;;;;;3.63;1.50;;;24.10;60.40;;;;;;5056628;28;20658;-55
2023/06/02 11:14:23;;;;;;;3.90;1.43;;;;;;;;;;5057007;28;20455;-58
2023/06/02 11:17:27;;;;;;;21.37;2.70;;;24.20;60.10;;;;;;5056704;28;20444;-56
2023/06/02 11:19:56;;;;;;;4.37;1.80;;;24.50;64.20;;;;;;5053780;28;20471;-57
2023/06/02 11:22:23;;;;;;;3.70;1.93;;;;;;;;;;5056478;28;20444;-57
2023/06/02 11:24:56;;;;;;;1.53;1.30;;;;;;;;;;5054859;28;20471;-53
2023/06/02 11:27:35;;;;;;;3.20;1.70;;;;;;;;;;5050436;28;20436;-57
2023/06/02 11:30:08;;;;;;;3.63;1.67;;;23.40;70.10;;;;;;5053075;28;20460;-59
2023/06/02 11:32:35;;;;;;;3.20;1.30;;;;;;;;;;5052599;28;20502;-57
2023/06/02 11:35:05;;;;;;;3.27;2.10;;;23.40;69.10;;;;;;5044846;28;20433;-53
2023/06/02 11:37:33;;;;;;;2.10;1.47;;;;;;;;;;5056838;28;20448;-55
2023/06/02 11:40:01;;;;;;;1.73;1.30;;;;;;;;;;5055814;28;20463;-55
2023/06/02 11:42:35;;;;;;;5.23;1.57;;;;;;;;;;5046660;28;20471;-58
2023/06/02 11:45:02;;;;;;;2.33;1.60;;;;;;;;;;5049336;28;20500;-58
2023/06/02 11:47:29;;;;;;;2.37;1.63;;;;;;;;;;5050296;28;20470;-52
2023/06/02 11:49:57;;;;;;;2.50;1.37;;;;;;;;;;5054283;28;20460;-56
2023/06/02 11:52:25;;;;;;;6.13;1.70;;;;;;;;;;5056901;28;20424;-56
2023/06/02 11:54:54;;;;;;;5.87;1.53;;;23.20;67.10;;;;;;5056273;28;20480;-55
2023/06/02 11:57:29;;;;;;;2.60;1.50;;;23.20;60.70;;;;;;5053790;28;20499;-58
2023/06/02 12:00:11;;;;;;;5.37;2.63;;;23.00;67.40;;;;;;5050880;28;20914;-58
2023/06/02 12:02:43;;;;;;;8.00;1.40;;;22.70;67.40;;;;;;5056283;28;20500;-56
2023/06/02 12:05:28;;;;;;;4.03;1.73;;;22.30;65.10;;;;;;5056459;28;20424;-53
2023/06/02 12:07:57;;;;;;;10.47;1.97;;;;;;;;;;5054830;28;20432;-57
2023/06/02 12:10:32;;;;;;;3.60;2.20;;;22.50;68.50;;;;;;5053264;28;20435;-55
2023/06/02 12:12:59;;;;;;;3.70;1.30;;;;;;;;;;5051005;28;20423;-54
2023/06/02 12:15:32;;;;;;;2.90;1.13;;;;;;;;;;5054166;28;20453;-57
2023/06/02 12:18:00;;;;;;;2.97;1.40;;;;;;;;;;5056418;28;20442;-54
2023/06/02 12:20:41;;;;;;;2.70;1.40;;;22.50;64.90;;;;;;5051519;28;20443;-56
2023/06/02 12:23:10;;;;;;;1.87;1.33;;;;;;;;;;5056450;28;20425;-57
2023/06/02 12:25:37;;;;;;;1.27;0.97;;;;;;;;;;5056655;28;20447;-52
2023/06/02 12:28:15;;;;;;;4.00;1.57;;;22.90;56.80;;;;;;5053497;28;20476;-60
2023/06/02 12:30:43;;;;;;;1.63;1.27;;;;;;;;;;5054161;28;20460;-58
2023/06/02 12:33:13;;;;;;;3.80;1.23;;;22.70;59.00;;;;;;5056122;28;20470;-57
2023/06/02 12:35:40;;;;;;;2.87;1.30;;;;;;;;;;5055910;28;20542;-57
2023/06/02 12:38:09;;;;;;;1.57;1.10;;;22.70;56.80;;;;;;5056615;28;20429;-57
2023/06/02 12:40:37;;;;;;;2.03;1.40;;;;;;;;;;5056455;28;20425;-49
2023/06/02 12:43:04;;;;;;;4.80;1.27;;;;;;;;;;5056146;28;20455;-57
2023/06/02 12:45:32;;;;;;;2.13;1.33;;;;;;;;;;5051991;28;20472;-60
2023/06/02 12:48:01;;;;;;;2.37;1.50;;;;;;;;;;5052765;28;20432;-55
2023/06/02 12:50:28;;;;;;;7.17;3.10;;;;;;;;;;5047988;28;20492;-58
2023/06/02 12:52:57;;;;;;;3.23;1.47;;;;;;;;;;5050935;28;20447;-58
2023/06/02 12:55:26;;;;;;;2.47;1.73;;;;;;;;;;5055618;28;20465;-57
2023/06/02 12:57:54;;;;;;;2.40;1.43;;;;;;;;;;5053601;28;20428;-56
2023/06/02 13:00:21;;;;;;;1.63;1.30;;;;;;;;;;5056164;28;20451;-55
2023/06/02 13:02:48;;;;;;;9.00;1.40;;;;;;;;;;5059601;28;20444;-55
2023/06/02 13:05:18;;;;;;;16.43;3.83;;;;;;;;;;5056619;28;20455;-54
2023/06/02 13:07:45;;;;;;;29.37;8.37;;;;;;;;;;5059343;28;20535;-56
2023/06/02 13:10:13;;;;;;;11.90;5.63;;;;;;;;;;5058776;28;20480;-55
2023/06/02 13:12:41;;;;;;;6.23;2.70;;;;;;;;;;5059394;28;20490;-57
2023/06/02 13:15:09;;;;;;;3.60;1.50;;;;;;;;;;5056818;28;20743;-55
2023/06/02 13:17:38;;;;;;;1.90;1.23;;;22.60;55.90;;;;;;5059640;28;20451;-51
2023/06/02 13:20:06;;;;;;;5.10;1.47;;;22.70;55.30;;;;;;5057335;28;20471;-53
2023/06/02 13:22:34;;;;;;;2.63;1.80;;;;;;;;;;5054541;28;20444;-56
2023/06/02 13:25:01;;;;;;;4.73;1.17;;;;;;;;;;5055681;28;20460;-50
2023/06/02 13:27:28;;;;;;;2.40;1.47;;;22.80;55.90;;;;;;5059488;28;20440;-52
2023/06/02 13:29:57;;;;;;;2.17;1.20;;;23.00;55.70;;;;;;5059298;28;20506;-52
2023/06/02 13:32:24;;;;;;;4.27;1.40;;;;;;;;;;5059645;28;20444;-54
2023/06/02 13:34:55;;;;;;;7.73;2.10;;;23.00;49.80;;;;;;5059191;28;20474;-56
2023/06/02 13:37:22;;;;;;;1.77;1.20;;;;;;;;;;5058164;28;20440;-53
2023/06/02 13:39:50;;;;;;;4.50;1.60;;;;;;;;;;5059321;28;20436;-51
2023/06/02 13:42:17;;;;;;;1.93;1.30;;;;;;;;;;5058891;28;20524;-52
2023/06/02 13:44:45;;;;;;;2.20;1.27;;;;;;;;;;5057924;28;20436;-54
2023/06/02 13:47:13;;;;;;;3.10;1.47;;;22.70;54.60;;;;;;5058633;28;20484;-53
2023/06/02 13:49:40;;;;;;;2.07;0.97;;;;;;;;;;5059026;28;20480;-55
2023/06/02 13:52:08;;;;;;;2.37;1.33;;;;;;;;;;5059050;28;20440;-53
2023/06/02 13:54:35;;;;;;;1.40;1.30;;;;;;;;;;5059309;28;20440;-59
2023/06/02 13:57:02;;;;;;;5.40;1.10;;;;;;;;;;5058806;28;20424;-53
2023/06/02 13:59:30;;;;;;;1.70;1.20;;;;;;;;;;5058128;28;20464;-50
2023/06/02 14:01:57;;;;;;;1.47;1.17;;;22.40;51.50;;;;;;5058096;28;20502;-48
2023/06/02 14:04:26;;;;;;;11.40;1.93;;;22.60;55.70;;;;;;5058018;28;20464;-49
2023/06/02 14:06:53;;;;;;;1.90;1.23;;;;;;;;;;5058481;28;20468;-54
2023/06/02 14:09:20;;;;;;;2.13;1.30;;;;;;;;;;5058401;28;20464;-53